Time;durP1;ratioP1;P1;durP2;ratioP2;P2;SDS_P1;SDS_P2;PMS_P1;PMS_P2;Temp;Humidity;BMP_temperature;BMP_pressure;BME280_temperature;BME280_humidity;BME280_pressure;Samples;Min_cycle;Max_cycle;Signal;HPM_P1;HPM_P2
2022/04/01 00:02:25;;;;;;;4.43;1.50;;;0.80;99.90;;;;;;5094685;28;20043;-77
2022/04/01 00:04:51;;;;;;;2.90;1.90;;;0.70;99.90;;;;;;5113810;28;20506;-76
2022/04/01 00:07:17;;;;;;;3.40;1.58;;;0.80;99.90;;;;;;5095422;28;20055;-78
2022/04/01 00:09:43;;;;;;;2.95;1.40;;;0.80;99.90;;;;;;5094921;28;20055;-80
2022/04/01 00:12:09;;;;;;;5.15;2.70;;;0.80;99.90;;;;;;5113490;28;20165;-79
2022/04/01 00:14:36;;;;;;;2.33;1.42;;;0.90;99.90;;;;;;5095809;28;20127;-77
2022/04/01 00:17:02;;;;;;;4.20;1.20;;;0.80;99.90;;;;;;5094245;28;20043;-79
2022/04/01 00:19:28;;;;;;;4.47;1.35;;;0.80;99.90;;;;;;5095823;28;20056;-79
2022/04/01 00:21:54;;;;;;;2.25;1.30;;;0.90;99.90;;;;;;5095086;28;20506;-78
2022/04/01 00:24:21;;;;;;;2.80;1.10;;;0.90;99.90;;;;;;5093492;28;20503;-78
2022/04/01 00:26:47;;;;;;;2.92;1.77;;;0.90;99.90;;;;;;5095616;28;20126;-78
2022/04/01 00:29:16;;;;;;;1.77;1.17;;;0.90;99.90;;;;;;5095284;28;20104;-77
2022/04/01 00:31:43;;;;;;;4.88;1.35;;;0.90;99.90;;;;;;5113233;28;20432;-77
2022/04/01 00:34:18;;;;;;;5.13;1.05;;;0.90;99.90;;;;;;5094987;28;20054;-76
2022/04/01 00:36:45;;;;;;;5.28;1.92;;;0.90;99.90;;;;;;5095744;28;20391;-77
2022/04/01 00:39:12;;;;;;;3.55;1.10;;;0.90;99.90;;;;;;5094550;28;20040;-78
2022/04/01 00:41:38;;;;;;;8.43;1.40;;;1.00;99.90;;;;;;5078458;28;20090;-78
2022/04/01 00:44:17;;;;;;;1.98;1.27;;;1.00;99.90;;;;;;5095218;28;20035;-80
2022/04/01 00:46:50;;;;;;;2.08;1.52;;;1.00;99.90;;;;;;5112857;28;20039;-77
2022/04/01 00:49:18;;;;;;;1.73;1.20;;;1.00;99.90;;;;;;5095043;28;20117;-76
2022/04/01 00:51:46;;;;;;;1.77;1.15;;;1.00;99.90;;;;;;5094302;28;20087;-78
2022/04/01 00:54:12;;;;;;;1.83;1.08;;;0.90;99.90;;;;;;5095163;28;20040;-77
2022/04/01 00:56:39;;;;;;;4.47;1.42;;;1.00;99.90;;;;;;5095240;28;20051;-77
2022/04/01 00:59:06;;;;;;;2.60;1.50;;;0.90;99.90;;;;;;5112302;28;20075;-76
2022/04/01 01:01:34;;;;;;;1.80;1.10;;;0.90;99.90;;;;;;5113559;28;20439;-76
2022/04/01 01:04:10;;;;;;;5.88;1.45;;;1.00;99.90;;;;;;5116732;28;20075;-76
2022/04/01 01:06:41;;;;;;;7.55;1.58;;;1.00;99.90;;;;;;5116470;28;20043;-76
2022/04/01 01:09:08;;;;;;;2.38;1.38;;;0.90;99.90;;;;;;5116847;28;20042;-76
2022/04/01 01:11:35;;;;;;;2.47;1.13;;;0.90;99.90;;;;;;5116899;28;20054;-76
2022/04/01 01:14:03;;;;;;;3.40;1.27;;;1.00;99.90;;;;;;5115990;28;20044;-76
2022/04/01 01:16:29;;;;;;;3.53;1.20;;;1.00;99.90;;;;;;5117013;28;20043;-76
2022/04/01 01:19:07;;;;;;;1.77;1.23;;;1.00;99.90;;;;;;5116155;28;20073;-76
2022/04/01 01:21:34;;;;;;;3.70;1.05;;;1.00;99.90;;;;;;5090971;28;20544;-76
2022/04/01 01:24:07;;;;;;;4.63;0.95;;;1.00;99.90;;;;;;5116354;28;20514;-76
2022/04/01 01:26:35;;;;;;;2.05;1.17;;;1.00;99.90;;;;;;5098719;28;20108;-76
2022/04/01 01:29:02;;;;;;;4.00;1.08;;;1.00;99.90;;;;;;5097722;28;20118;-76
2022/04/01 01:31:28;;;;;;;2.65;1.10;;;1.00;99.90;;;;;;5081423;28;20047;-76
2022/04/01 01:33:55;;;;;;;5.20;2.03;;;1.00;99.90;;;;;;5115619;28;20046;-75
2022/04/01 01:36:23;;;;;;;2.42;1.13;;;0.90;99.90;;;;;;5117188;28;20051;-75
2022/04/01 01:38:49;;;;;;;2.38;1.08;;;0.90;99.90;;;;;;5081261;28;20548;-76
2022/04/01 01:41:15;;;;;;;1.20;1.10;;;0.90;99.90;;;;;;5115762;28;20062;-75
2022/04/01 01:43:41;;;;;;;3.90;1.70;;;0.90;99.90;;;;;;5097927;28;20036;-75
2022/04/01 01:46:08;;;;;;;1.67;1.10;;;0.90;99.90;;;;;;5081000;28;20515;-75
2022/04/01 01:48:33;;;;;;;5.53;1.38;;;0.90;99.90;;;;;;5080179;28;20044;-75
2022/04/01 01:54:45;;;;;;;1.90;1.30;;;0.90;99.90;;;;;;5097985;28;20040;-74
2022/04/01 01:56:43;;;;;;;3.00;1.45;;;0.90;99.90;;;;;;5093085;28;20050;-75
2022/04/01 01:59:11;;;;;;;4.95;1.40;;;1.00;99.90;;;;;;5115786;28;20491;-75
2022/04/01 02:01:41;;;;;;;3.58;1.27;;;1.00;99.90;;;;;;5115924;28;20126;-76
2022/04/01 02:04:07;;;;;;;6.13;1.55;;;1.00;99.90;;;;;;5097115;28;20383;-75
2022/04/01 02:06:34;;;;;;;1.52;0.90;;;0.90;99.90;;;;;;5115845;28;20043;-75
2022/04/01 02:09:00;;;;;;;3.38;1.45;;;1.00;99.90;;;;;;5114903;28;20042;-75
2022/04/01 02:11:26;;;;;;;2.40;1.23;;;1.00;99.90;;;;;;5115485;28;20035;-75
2022/04/01 02:13:52;;;;;;;3.88;1.60;;;1.00;99.90;;;;;;5114772;28;20031;-75
2022/04/01 02:16:19;;;;;;;3.80;1.55;;;1.00;99.90;;;;;;5115091;28;20454;-75
2022/04/01 02:18:45;;;;;;;5.78;1.30;;;1.00;99.90;;;;;;5115361;28;20118;-76
2022/04/01 02:21:11;;;;;;;3.67;1.60;;;1.00;99.90;;;;;;5115761;28;20165;-75
2022/04/01 02:23:43;;;;;;;6.43;1.85;;;1.00;99.90;;;;;;5096497;28;20114;-76
2022/04/01 02:26:09;;;;;;;5.75;1.48;;;1.00;99.90;;;;;;5097266;28;20126;-76
2022/04/01 02:28:36;;;;;;;2.88;1.30;;;1.10;99.90;;;;;;5096942;28;20035;-75
2022/04/01 02:31:04;;;;;;;2.65;1.27;;;1.00;99.90;;;;;;5096633;28;20067;-76
2022/04/01 02:33:31;;;;;;;3.67;1.30;;;1.10;99.90;;;;;;5115153;28;20503;-75
2022/04/01 02:35:58;;;;;;;7.63;1.88;;;1.10;99.90;;;;;;5096912;28;20050;-77
2022/04/01 02:38:28;;;;;;;3.63;1.23;;;1.20;99.90;;;;;;5114673;28;20451;-75
2022/04/01 02:40:55;;;;;;;3.92;1.70;;;1.10;99.90;;;;;;5115143;28;20044;-74
2022/04/01 02:43:22;;;;;;;3.03;1.42;;;1.20;99.90;;;;;;5097053;28;20044;-75
2022/04/01 02:45:48;;;;;;;5.45;1.30;;;1.20;99.90;;;;;;5114125;28;20050;-74
2022/04/01 02:48:19;;;;;;;3.92;1.40;;;1.10;99.90;;;;;;5094828;28;20066;-74
2022/04/01 02:50:47;;;;;;;1.77;1.35;;;1.20;99.90;;;;;;5094872;28;20055;-75
2022/04/01 02:53:12;;;;;;;5.95;1.90;;;1.10;99.90;;;;;;5113571;28;20517;-75
2022/04/01 02:55:39;;;;;;;4.30;1.88;;;1.10;99.90;;;;;;5096722;28;20052;-74
2022/04/01 02:58:09;;;;;;;2.50;1.40;;;1.20;99.90;;;;;;5114716;28;20116;-74
2022/04/01 03:00:37;;;;;;;3.33;1.50;;;1.20;99.90;;;;;;5096441;28;20487;-74
2022/04/01 03:03:08;;;;;;;5.50;1.83;;;1.20;99.90;;;;;;5096572;28;20429;-74
2022/04/01 03:05:35;;;;;;;8.65;2.20;;;1.20;99.90;;;;;;5095749;28;20052;-75
2022/04/01 03:08:03;;;;;;;4.57;1.63;;;1.20;99.90;;;;;;5096196;28;20121;-74
2022/04/01 03:10:30;;;;;;;3.95;1.48;;;1.20;99.90;;;;;;5096605;28;20052;-73
2022/04/01 03:12:56;;;;;;;3.00;1.50;;;1.20;99.90;;;;;;5095750;28;20058;-75
2022/04/01 03:15:24;;;;;;;2.60;1.40;;;1.20;99.90;;;;;;5096083;28;20040;-74
2022/04/01 03:17:50;;;;;;;2.55;1.33;;;1.20;99.90;;;;;;5114404;28;20078;-75
2022/04/01 03:20:16;;;;;;;3.65;1.40;;;1.20;99.90;;;;;;5114001;28;20043;-74
2022/04/01 03:22:43;;;;;;;4.00;1.35;;;1.20;99.90;;;;;;5096130;28;20043;-74
2022/04/01 03:25:18;;;;;;;5.30;1.23;;;1.20;99.90;;;;;;5095109;28;20044;-75
2022/04/01 03:27:45;;;;;;;6.35;2.90;;;1.20;99.90;;;;;;5095193;28;20126;-74
2022/04/01 03:30:12;;;;;;;11.75;3.10;;;1.20;99.90;;;;;;5096099;28;20051;-74
2022/04/01 03:32:38;;;;;;;5.63;1.45;;;1.20;99.90;;;;;;5114091;28;20046;-74
2022/04/01 03:35:14;;;;;;;4.85;1.30;;;1.20;99.90;;;;;;5095198;28;20047;-74
2022/04/01 03:37:41;;;;;;;3.25;1.50;;;1.20;99.90;;;;;;5114083;28;20079;-74
2022/04/01 03:40:08;;;;;;;10.77;3.42;;;1.20;99.90;;;;;;5078982;28;20054;-74
2022/04/01 03:42:34;;;;;;;3.60;1.55;;;1.20;99.90;;;;;;5094611;28;20124;-74
2022/04/01 03:45:06;;;;;;;4.97;2.33;;;1.20;99.90;;;;;;5114177;28;20050;-74
2022/04/01 03:47:41;;;;;;;3.25;1.20;;;1.20;99.90;;;;;;5078519;28;20118;-74
2022/04/01 03:50:12;;;;;;;4.53;1.42;;;1.20;99.90;;;;;;5079003;28;20069;-74
2022/04/01 03:52:38;;;;;;;4.50;1.30;;;1.20;99.90;;;;;;5083884;28;20052;-74
2022/04/01 03:55:06;;;;;;;2.72;1.20;;;1.20;99.90;;;;;;5086589;28;20101;-75
2022/04/01 03:57:42;;;;;;;3.10;1.20;;;1.20;99.90;;;;;;5091763;28;20032;-74
2022/04/01 04:00:13;;;;;;;10.18;2.83;;;1.20;99.90;;;;;;5095610;28;20043;-74
2022/04/01 04:02:43;;;;;;;2.17;1.30;;;1.20;99.90;;;;;;5094966;28;20044;-74
2022/04/01 04:05:10;;;;;;;2.67;1.17;;;1.20;99.90;;;;;;5093264;28;20044;-75
2022/04/01 04:07:39;;;;;;;3.83;1.30;;;1.20;99.90;;;;;;5092060;28;20096;-74
2022/04/01 04:10:06;;;;;;;5.18;0.95;;;1.20;99.90;;;;;;5068418;28;20127;-74
2022/04/01 04:12:35;;;;;;;3.05;1.70;;;1.30;99.90;;;;;;5079215;28;20123;-75
2022/04/01 04:15:02;;;;;;;2.25;1.35;;;1.30;99.90;;;;;;5095937;28;20100;-75
2022/04/01 04:17:37;;;;;;;7.55;1.67;;;1.30;99.90;;;;;;5111299;28;20044;-74
2022/04/01 04:20:09;;;;;;;4.43;1.10;;;1.30;99.90;;;;;;5095327;28;20043;-74
2022/04/01 04:23:06;;;;;;;5.70;1.20;;;1.30;99.90;;;;;;5091369;28;20043;-74
2022/04/01 04:25:37;;;;;;;6.50;1.17;;;1.30;99.90;;;;;;5075281;28;20518;-74
2022/04/01 04:28:12;;;;;;;4.25;1.38;;;1.30;99.90;;;;;;5081986;28;20096;-74
2022/04/01 04:30:49;;;;;;;3.33;1.08;;;1.30;99.90;;;;;;5094837;28;20047;-75
2022/04/01 04:33:17;;;;;;;4.43;1.27;;;1.30;99.90;;;;;;5105472;28;20380;-74
2022/04/01 04:35:48;;;;;;;2.95;1.13;;;1.30;99.90;;;;;;5093878;28;20072;-74
2022/04/01 04:38:16;;;;;;;4.78;1.00;;;1.30;99.90;;;;;;5085531;28;20097;-74
2022/04/01 04:40:43;;;;;;;3.90;1.40;;;1.40;99.90;;;;;;5099451;28;20390;-74
2022/04/01 04:43:10;;;;;;;5.28;1.15;;;1.40;99.90;;;;;;5089856;28;20404;-74
2022/04/01 04:45:36;;;;;;;2.38;0.90;;;1.40;99.90;;;;;;5058009;28;20048;-75
2022/04/01 04:48:04;;;;;;;5.95;1.20;;;1.40;99.90;;;;;;5092343;28;20036;-75
2022/04/01 04:50:32;;;;;;;4.80;1.40;;;1.40;99.90;;;;;;5076038;28;20511;-75
2022/04/01 04:52:57;;;;;;;3.80;1.30;;;1.40;99.90;;;;;;5096544;28;20036;-74
2022/04/01 04:55:24;;;;;;;5.07;1.40;;;1.50;99.90;;;;;;5116866;28;20459;-75
2022/04/01 04:57:52;;;;;;;3.45;1.08;;;1.40;99.90;;;;;;5097740;28;20501;-74
2022/04/01 05:00:20;;;;;;;6.43;2.67;;;1.50;99.90;;;;;;5115379;28;20047;-74
2022/04/01 05:03:22;;;;;;;4.72;1.10;;;1.50;99.90;;;;;;5081643;28;20059;-74
2022/04/01 05:05:53;;;;;;;6.50;1.23;;;1.50;99.90;;;;;;5077856;28;20055;-75
2022/04/01 05:08:33;;;;;;;5.68;1.35;;;1.50;99.90;;;;;;5101392;28;20039;-76
2022/04/01 05:11:13;;;;;;;4.88;1.20;;;1.50;99.90;;;;;;5117128;28;20060;-74
2022/04/01 05:14:11;;;;;;;3.60;1.00;;;1.50;99.90;;;;;;5097693;28;20093;-74
2022/04/01 05:17:01;;;;;;;5.85;1.52;;;1.50;99.90;;;;;;5096510;28;20395;-74
2022/04/01 05:19:29;;;;;;;2.85;1.35;;;1.50;99.90;;;;;;5115707;28;20043;-74
2022/04/01 05:22:09;;;;;;;4.53;1.15;;;1.50;99.90;;;;;;5098803;28;20094;-73
2022/04/01 05:24:40;;;;;;;5.97;1.65;;;1.50;99.90;;;;;;5097630;28;20047;-75
2022/04/01 05:27:23;;;;;;;3.00;1.17;;;1.50;99.90;;;;;;5081107;28;20050;-74
2022/04/01 05:30:05;;;;;;;1.30;0.55;;;1.60;99.90;;;;;;5097766;28;20517;-78
2022/04/01 05:32:36;;;;;;;4.35;1.15;;;1.60;99.90;;;;;;5073510;28;20043;-75
2022/04/01 05:35:04;;;;;;;2.80;1.30;;;1.60;99.90;;;;;;5077310;28;20092;-73
2022/04/01 05:37:31;;;;;;;2.35;0.95;;;1.60;99.90;;;;;;5092991;28;20044;-74
2022/04/01 05:40:00;;;;;;;8.13;1.48;;;1.60;99.90;;;;;;5098476;28;20134;-74
2022/04/01 05:42:25;;;;;;;5.32;1.35;;;1.60;99.90;;;;;;5080442;28;20050;-75
2022/04/01 05:44:52;;;;;;;4.13;1.08;;;1.60;99.90;;;;;;5114845;28;20134;-74
2022/04/01 05:47:21;;;;;;;2.35;1.00;;;1.60;99.90;;;;;;5095501;28;20059;-74
2022/04/01 05:49:47;;;;;;;4.05;1.52;;;1.60;99.90;;;;;;5097341;28;20470;-75
2022/04/01 05:52:13;;;;;;;7.15;1.40;;;1.60;99.90;;;;;;5096981;28;20050;-75
2022/04/01 05:54:41;;;;;;;6.18;1.58;;;1.60;99.90;;;;;;5115391;28;20097;-75
2022/04/01 05:57:08;;;;;;;3.72;1.38;;;1.60;99.90;;;;;;5080364;28;20130;-75
2022/04/01 05:59:34;;;;;;;3.95;1.25;;;1.60;99.90;;;;;;5116208;28;20040;-75
2022/04/01 06:02:28;;;;;;;4.72;1.42;;;1.60;99.90;;;;;;5114581;28;20092;-74
2022/04/01 06:05:21;;;;;;;3.33;1.17;;;1.70;99.90;;;;;;5083527;28;20490;-79
2022/04/01 06:08:07;;;;;;;5.63;1.23;;;1.70;99.90;;;;;;5097518;28;20124;-76
2022/04/01 06:11:09;;;;;;;7.30;1.58;;;1.70;99.90;;;;;;5094381;28;20105;-76
2022/04/01 06:13:47;;;;;;;3.28;1.73;;;1.70;99.90;;;;;;5097851;28;20039;-76
2022/04/01 06:16:31;;;;;;;5.38;1.48;;;1.80;99.90;;;;;;5079985;28;20079;-75
2022/04/01 06:19:29;;;;;;;4.00;1.00;;;1.80;99.90;;;;;;5115153;28;20141;-76
2022/04/01 06:22:03;;;;;;;3.88;1.00;;;1.80;99.90;;;;;;5093990;28;20568;-76
2022/04/01 06:24:37;;;;;;;3.97;0.80;;;1.80;99.90;;;;;;5099175;28;20040;-76
2022/04/01 06:27:03;;;;;;;5.07;1.50;;;1.80;99.90;;;;;;5097469;28;20044;-75
2022/04/01 06:29:42;;;;;;;4.38;1.30;;;1.90;99.90;;;;;;5096680;28;20054;-75
2022/04/01 06:32:29;;;;;;;8.70;2.55;;;1.90;99.90;;;;;;5115051;28;20517;-74
2022/04/01 06:35:18;;;;;;;3.10;1.10;;;1.80;99.90;;;;;;5100309;28;20445;-76
2022/04/01 06:38:01;;;;;;;3.42;1.20;;;1.90;99.90;;;;;;5113912;28;20475;-75
2022/04/01 06:40:41;;;;;;;5.38;1.35;;;1.90;99.90;;;;;;5083218;28;20039;-77
2022/04/01 06:43:07;;;;;;;3.03;1.83;;;1.90;99.90;;;;;;5115018;28;20039;-76
2022/04/01 06:45:33;;;;;;;1.67;0.93;;;1.90;99.90;;;;;;5113981;28;20047;-76
2022/04/01 06:47:59;;;;;;;2.63;1.27;;;1.90;99.90;;;;;;5096874;28;20054;-76
2022/04/01 06:50:25;;;;;;;7.10;1.92;;;1.90;99.90;;;;;;5113721;28;20116;-77
2022/04/01 06:52:51;;;;;;;10.65;2.35;;;2.00;99.90;;;;;;5114496;28;20491;-76
2022/04/01 06:55:17;;;;;;;4.82;1.23;;;2.00;99.90;;;;;;5114828;28;20127;-77
2022/04/01 06:57:43;;;;;;;4.53;1.60;;;2.00;99.90;;;;;;5095871;28;20391;-75
2022/04/01 07:00:13;;;;;;;2.70;1.20;;;2.10;99.90;;;;;;5114291;28;20047;-77
2022/04/01 07:02:43;;;;;;;5.22;1.40;;;2.10;99.90;;;;;;5096507;28;20114;-78
2022/04/01 07:05:10;;;;;;;3.20;1.10;;;2.10;99.90;;;;;;5084999;28;20135;-79
2022/04/01 07:07:37;;;;;;;7.32;1.48;;;2.10;99.90;;;;;;5102908;28;20036;-77
2022/04/01 07:10:07;;;;;;;5.10;1.15;;;2.10;99.90;;;;;;5114559;28;20142;-76
2022/04/01 07:12:32;;;;;;;7.60;1.60;;;2.20;99.90;;;;;;5095569;28;20052;-76
2022/04/01 07:14:59;;;;;;;6.65;1.35;;;2.20;99.90;;;;;;5114214;28;20049;-75
2022/04/01 07:17:25;;;;;;;2.90;1.27;;;2.20;99.90;;;;;;5087357;28;20036;-78
2022/04/01 07:19:52;;;;;;;1.52;0.65;;;2.20;99.90;;;;;;5112246;28;20114;-76
2022/04/01 07:22:18;;;;;;;6.43;2.22;;;2.20;99.90;;;;;;5113445;28;20122;-76
2022/04/01 07:24:44;;;;;;;1.23;0.70;;;2.20;99.90;;;;;;5095658;28;20131;-76
2022/04/01 07:27:11;;;;;;;2.90;1.23;;;2.20;99.90;;;;;;5113196;28;20512;-75
2022/04/01 07:29:37;;;;;;;0.90;0.60;;;2.30;99.90;;;;;;5113379;28;20041;-75
2022/04/01 07:34:52;;;;;;;2.88;0.88;;;2.30;99.90;;;;;;5113401;28;20055;-78
2022/04/01 07:37:23;;;;;;;4.20;1.20;;;2.40;99.90;;;;;;5095779;28;20043;-75
2022/04/01 07:39:54;;;;;;;1.75;0.77;;;2.40;99.90;;;;;;5113337;28;20124;-75
2022/04/01 07:42:21;;;;;;;1.33;0.75;;;2.40;99.90;;;;;;5095645;28;20051;-78
2022/04/01 07:44:51;;;;;;;2.38;0.63;;;2.50;99.90;;;;;;5095481;28;20039;-76
2022/04/01 07:47:18;;;;;;;1.33;0.65;;;2.50;99.90;;;;;;5112989;28;20038;-78
2022/04/01 07:49:45;;;;;;;3.58;0.70;;;2.50;99.90;;;;;;5113672;28;20040;-78
2022/04/01 07:52:13;;;;;;;0.70;0.60;;;2.50;99.90;;;;;;5113402;28;20051;-78
2022/04/01 07:54:42;;;;;;;5.03;0.88;;;2.50;99.90;;;;;;5112809;28;20048;-77
2022/04/01 07:57:09;;;;;;;3.25;0.95;;;2.50;99.90;;;;;;5095482;28;20040;-77
2022/04/01 07:59:35;;;;;;;4.75;1.17;;;2.50;99.90;;;;;;5095053;28;20044;-77
2022/04/01 08:02:06;;;;;;;2.55;1.20;;;2.50;99.90;;;;;;5094361;28;20042;-78
2022/04/01 08:04:32;;;;;;;3.30;1.40;;;2.50;99.90;;;;;;5095503;28;20047;-78
2022/04/01 08:07:01;;;;;;;3.85;1.10;;;2.50;99.90;;;;;;5095132;28;20047;-75
2022/04/01 08:09:27;;;;;;;2.42;1.10;;;2.50;99.90;;;;;;5112835;28;20039;-80
2022/04/01 08:11:54;;;;;;;2.13;0.80;;;2.50;99.90;;;;;;5100317;28;20483;-78
2022/04/01 08:14:21;;;;;;;4.15;1.05;;;2.50;99.90;;;;;;5120210;28;20027;-77
2022/04/01 08:16:47;;;;;;;1.58;0.85;;;2.50;99.90;;;;;;5118865;28;20513;-78
2022/04/01 08:19:14;;;;;;;5.28;0.95;;;2.50;99.90;;;;;;5101974;28;20122;-79
2022/04/01 08:21:40;;;;;;;2.05;1.45;;;2.50;99.90;;;;;;5100812;28;20048;-77
2022/04/01 08:24:07;;;;;;;2.47;0.90;;;2.50;99.90;;;;;;5101353;28;20039;-78
2022/04/01 08:26:34;;;;;;;1.65;0.82;;;2.50;99.90;;;;;;5101660;28;20104;-79
2022/04/01 08:29:00;;;;;;;2.00;1.08;;;2.50;99.90;;;;;;5119386;28;20044;-80
2022/04/01 08:31:27;;;;;;;4.18;1.30;;;2.50;99.90;;;;;;5100590;28;20039;-76
2022/04/01 08:33:54;;;;;;;3.67;1.30;;;2.50;99.90;;;;;;5098627;28;20048;-79
2022/04/01 08:36:20;;;;;;;4.47;1.67;;;2.60;99.90;;;;;;5119338;28;20097;-79
2022/04/01 08:38:46;;;;;;;3.90;1.15;;;2.60;99.90;;;;;;5101401;28;20440;-77
2022/04/01 08:41:20;;;;;;;3.97;1.42;;;2.60;99.90;;;;;;5102003;28;20043;-78
2022/04/01 08:43:48;;;;;;;4.32;1.02;;;2.70;99.90;;;;;;5119063;28;20127;-76
2022/04/01 08:46:15;;;;;;;7.57;2.00;;;2.80;99.90;;;;;;5090714;28;20096;-78
2022/04/01 08:48:41;;;;;;;5.63;1.42;;;2.80;99.90;;;;;;5120022;28;20031;-78
2022/04/01 08:51:07;;;;;;;1.70;0.93;;;2.80;99.90;;;;;;5093791;28;20554;-78
2022/04/01 08:53:38;;;;;;;3.65;1.27;;;2.80;99.90;;;;;;5115989;28;20426;-82
2022/04/01 08:56:05;;;;;;;2.03;1.27;;;2.80;99.90;;;;;;5118848;28;20126;-77
2022/04/01 08:58:36;;;;;;;2.15;1.17;;;2.80;99.90;;;;;;5117807;28;20475;-78
2022/04/01 09:01:03;;;;;;;4.10;1.25;;;2.80;99.90;;;;;;5112486;28;20047;-78
2022/04/01 09:03:30;;;;;;;3.38;1.15;;;2.80;99.90;;;;;;5101166;28;20110;-79
2022/04/01 09:05:58;;;;;;;2.05;1.15;;;2.80;99.90;;;;;;5118358;28;20036;-78
2022/04/01 09:08:27;;;;;;;4.43;1.65;;;2.80;99.90;;;;;;5101324;28;20104;-78
2022/04/01 09:10:58;;;;;;;2.33;1.55;;;2.90;99.90;;;;;;5120020;28;20079;-77
2022/04/01 09:13:30;;;;;;;2.10;1.60;;;3.00;99.90;;;;;;5118786;28;20483;-80
2022/04/01 09:15:57;;;;;;;6.07;1.20;;;3.10;99.90;;;;;;5084553;28;20391;-81
2022/04/01 09:18:34;;;;;;;4.93;1.50;;;3.10;99.90;;;;;;5100362;28;20035;-77
2022/04/01 09:21:00;;;;;;;5.38;1.90;;;3.20;99.90;;;;;;5118034;28;20040;-77
2022/04/01 09:23:26;;;;;;;2.28;1.23;;;3.10;99.90;;;;;;5098009;28;20391;-76
2022/04/01 09:25:53;;;;;;;2.60;1.38;;;3.20;99.90;;;;;;5115564;28;20040;-75
2022/04/01 09:28:34;;;;;;;4.38;1.58;;;3.20;99.90;;;;;;5098022;28;20131;-75
2022/04/01 09:31:30;;;;;;;4.43;1.70;;;3.20;99.90;;;;;;5098478;28;20044;-76
2022/04/01 09:33:55;;;;;;;2.33;1.27;;;3.30;99.90;;;;;;5113936;28;20048;-77
2022/04/01 09:36:26;;;;;;;3.13;1.30;;;3.30;99.90;;;;;;5116508;28;20403;-76
2022/04/01 09:38:59;;;;;;;3.63;1.45;;;3.30;99.90;;;;;;5097985;28;20047;-76
2022/04/01 09:41:39;;;;;;;2.22;1.20;;;3.40;99.90;;;;;;5115502;28;20034;-76
2022/04/01 09:44:35;;;;;;;3.30;1.48;;;3.40;99.90;;;;;;5116281;28;20044;-77
2022/04/01 09:47:03;;;;;;;4.28;1.92;;;3.40;99.90;;;;;;5094489;28;20130;-75
2022/04/01 09:49:35;;;;;;;4.38;1.90;;;3.40;99.90;;;;;;5098262;28;20062;-77
2022/04/01 09:52:02;;;;;;;4.80;1.80;;;3.40;99.90;;;;;;5097815;28;20126;-76
2022/04/01 09:54:28;;;;;;;1.98;1.10;;;3.50;99.90;;;;;;5095510;28;20047;-78
2022/04/01 09:56:58;;;;;;;4.30;1.50;;;3.60;99.90;;;;;;5093928;28;20104;-76
2022/04/01 09:59:25;;;;;;;3.40;1.40;;;3.60;99.90;;;;;;5112813;28;20078;-75
2022/04/01 10:01:51;;;;;;;1.25;1.02;;;3.60;99.90;;;;;;5113675;28;20108;-76
2022/04/01 10:04:17;;;;;;;7.80;2.58;;;3.70;99.90;;;;;;5094575;28;20043;-77
2022/04/01 10:06:43;;;;;;;6.63;2.35;;;3.70;99.90;;;;;;5077277;28;20040;-77
2022/04/01 10:09:11;;;;;;;4.10;1.88;;;3.70;99.90;;;;;;5077865;28;20036;-75
2022/04/01 10:11:41;;;;;;;2.25;1.30;;;3.70;99.90;;;;;;5067924;28;20048;-76
2022/04/01 10:14:16;;;;;;;1.30;0.95;;;3.70;99.90;;;;;;5054847;28;20044;-77
2022/04/01 10:16:45;;;;;;;7.00;1.70;;;3.70;99.90;;;;;;5068711;28;20079;-77
2022/04/01 10:19:24;;;;;;;3.00;1.38;;;3.60;99.90;;;;;;5106451;28;20043;-78
2022/04/01 10:21:51;;;;;;;7.03;2.13;;;3.60;99.90;;;;;;5097898;28;20456;-76
2022/04/01 10:24:47;;;;;;;3.92;1.35;;;3.70;99.90;;;;;;5082028;28;20052;-75
2022/04/01 10:27:23;;;;;;;3.95;1.90;;;3.70;99.90;;;;;;5077819;28;20044;-76
2022/04/01 10:29:49;;;;;;;4.10;1.70;;;3.70;99.90;;;;;;5072085;28;20621;-76
2022/04/01 10:32:25;;;;;;;4.85;1.73;;;3.70;99.90;;;;;;5113167;28;20399;-75
2022/04/01 10:34:53;;;;;;;2.70;1.48;;;3.80;99.90;;;;;;5077198;28;20528;-75
2022/04/01 10:37:22;;;;;;;3.25;1.80;;;3.90;99.90;;;;;;5056225;28;20110;-76
2022/04/01 10:40:00;;;;;;;2.08;1.30;;;3.90;99.90;;;;;;5070623;28;20509;-75
2022/04/01 10:42:31;;;;;;;5.57;2.05;;;4.00;99.90;;;;;;5091835;28;20047;-75
2022/04/01 10:45:00;;;;;;;5.95;1.75;;;4.10;99.90;;;;;;5073101;28;20048;-74
2022/04/01 10:53:39;;;;;;;4.93;1.63;;;4.50;99.90;;;;;;5085087;28;20551;-76
2022/04/01 10:56:25;;;;;;;4.90;1.77;;;4.60;99.90;;;;;;5094190;28;20044;-75
2022/04/01 10:59:09;;;;;;;3.63;1.55;;;4.70;99.90;;;;;;5094282;28;20054;-75
2022/04/01 11:01:40;;;;;;;2.03;1.33;;;4.90;99.90;;;;;;5093679;28;20047;-75
2022/04/01 11:04:12;;;;;;;3.13;1.38;;;5.00;99.90;;;;;;5092243;28;20089;-76
2022/04/01 11:06:54;;;;;;;3.50;1.85;;;5.00;99.90;;;;;;5094059;28;20545;-75
2022/04/01 11:09:39;;;;;;;4.57;1.63;;;5.10;99.90;;;;;;5093956;28;20097;-76
2022/04/01 11:12:20;;;;;;;4.95;1.67;;;5.30;99.90;;;;;;5092276;28;20085;-75
2022/04/01 11:15:07;;;;;;;1.77;1.27;;;5.30;99.90;;;;;;5094105;28;20130;-77
2022/04/01 11:17:35;;;;;;;2.85;1.30;;;5.40;99.90;;;;;;5073723;28;20052;-75
2022/04/01 11:20:13;;;;;;;5.55;1.55;;;5.40;99.90;;;;;;5090297;28;20048;-76
2022/04/01 11:22:53;;;;;;;2.78;1.33;;;5.30;99.90;;;;;;5076007;28;20479;-76
2022/04/01 11:25:24;;;;;;;4.93;1.80;;;5.30;99.90;;;;;;5091761;28;20048;-75
2022/04/01 11:27:56;;;;;;;3.90;1.45;;;5.30;99.90;;;;;;5093025;28;20049;-75
2022/04/01 11:30:24;;;;;;;3.33;1.55;;;5.40;99.90;;;;;;5092692;28;20431;-74
2022/04/01 11:32:58;;;;;;;2.20;1.48;;;5.40;99.90;;;;;;5092108;28;20365;-74
2022/04/01 11:35:30;;;;;;;3.53;1.20;;;5.40;99.90;;;;;;5092346;28;20040;-75
2022/04/01 11:37:58;;;;;;;3.70;2.00;;;5.40;99.90;;;;;;5094067;28;20055;-75
2022/04/01 11:40:29;;;;;;;4.20;1.13;;;5.40;99.90;;;;;;5092591;28;20044;-75
2022/04/01 11:43:04;;;;;;;3.17;1.55;;;5.50;99.90;;;;;;5093490;28;20397;-76
2022/04/01 11:45:34;;;;;;;;;;;5.60;99.90;;;;;;5092117;28;20048;-76
2022/04/01 11:48:02;;;;;;;3.05;1.20;;;5.70;99.90;;;;;;5092521;28;19920;-75
2022/04/01 11:50:28;;;;;;;2.28;1.40;;;5.70;99.90;;;;;;5093293;28;20055;-76
2022/04/01 11:52:56;;;;;;;3.22;1.38;;;5.60;99.90;;;;;;5091123;28;20130;-75
2022/04/01 11:55:28;;;;;;;5.90;1.23;;;5.70;99.90;;;;;;5093471;28;20522;-75
2022/04/01 11:57:57;;;;;;;3.97;1.30;;;5.70;99.90;;;;;;5106358;28;20122;-76
2022/04/01 12:00:25;;;;;;;1.15;0.80;;;5.70;99.90;;;;;;5094705;28;20050;-76
2022/04/01 12:02:53;;;;;;;1.15;0.60;;;5.60;99.90;;;;;;5091681;28;20052;-77
2022/04/01 12:05:20;;;;;;;0.93;0.60;;;5.50;99.90;;;;;;5075462;28;20044;-75
2022/04/01 12:10:41;;;;;;;4.85;1.30;;;5.40;99.90;;;;;;5094519;28;20048;-75
2022/04/01 12:13:09;;;;;;;5.03;1.48;;;5.40;99.90;;;;;;5113445;28;20441;-75
2022/04/01 12:15:46;;;;;;;3.60;1.23;;;5.60;99.90;;;;;;5094871;28;20086;-74
2022/04/01 12:18:14;;;;;;;3.22;0.90;;;5.60;99.90;;;;;;5090850;28;20109;-75
2022/04/01 12:20:42;;;;;;;1.73;0.90;;;5.70;99.90;;;;;;5074411;28;20101;-77
2022/04/01 12:23:08;;;;;;;3.00;1.10;;;5.60;99.90;;;;;;5082737;28;20103;-76
2022/04/01 12:25:37;;;;;;;2.33;0.90;;;5.50;99.90;;;;;;5095406;28;20043;-75
2022/04/01 12:28:04;;;;;;;3.63;0.80;;;5.60;99.90;;;;;;5094433;28;20048;-77
2022/04/01 12:30:31;;;;;;;4.53;1.10;;;5.60;99.90;;;;;;5095586;28;20083;-75
2022/04/01 12:33:00;;;;;;;4.05;0.70;;;5.60;99.90;;;;;;5093680;28;20093;-76
2022/04/01 12:35:26;;;;;;;3.10;1.05;;;5.60;99.90;;;;;;5112869;28;20123;-75
2022/04/01 12:38:02;;;;;;;3.20;0.73;;;5.50;99.30;;;;;;5113515;28;20054;-77
2022/04/01 12:40:34;;;;;;;3.22;1.02;;;5.40;98.80;;;;;;5095597;28;20484;-78
2022/04/01 12:43:00;;;;;;;2.53;0.80;;;5.40;99.10;;;;;;5112692;28;20035;-75
2022/04/01 12:45:26;;;;;;;2.33;1.23;;;5.40;97.60;;;;;;5113494;28;20453;-75
2022/04/01 12:47:52;;;;;;;0.93;0.80;;;5.40;98.00;;;;;;5113320;28;20059;-76
2022/04/01 12:50:37;;;;;;;4.53;1.30;;;5.30;97.30;;;;;;5112452;28;20036;-74
2022/04/01 12:53:10;;;;;;;2.05;1.17;;;5.20;98.50;;;;;;5091528;28;20496;-74
2022/04/01 12:55:36;;;;;;;2.78;0.93;;;5.30;99.90;;;;;;5093173;28;20051;-73
2022/04/01 12:58:04;;;;;;;4.47;1.20;;;5.20;99.90;;;;;;5110383;28;20039;-75
2022/04/01 13:00:30;;;;;;;2.55;1.30;;;5.20;99.90;;;;;;5099150;28;20051;-74
2022/04/01 13:03:01;;;;;;;3.10;1.00;;;5.10;99.90;;;;;;5116876;28;20052;-76
2022/04/01 13:05:27;;;;;;;3.28;1.20;;;5.00;99.90;;;;;;5116743;28;20040;-76
2022/04/01 13:07:53;;;;;;;2.03;1.33;;;5.00;99.90;;;;;;5116904;28;20579;-75
2022/04/01 13:10:21;;;;;;;4.10;1.05;;;5.00;99.90;;;;;;5116436;28;20051;-75
2022/04/01 13:12:48;;;;;;;2.28;1.05;;;5.00;99.90;;;;;;5078209;28;20040;-76
2022/04/01 13:15:19;;;;;;;7.22;1.20;;;5.10;99.90;;;;;;5084845;28;20039;-75
2022/04/01 13:17:54;;;;;;;1.92;1.45;;;5.20;99.90;;;;;;5081358;28;20126;-74
2022/04/01 13:20:25;;;;;;;5.97;0.80;;;5.20;99.90;;;;;;5098644;28;20055;-78
2022/04/01 13:22:51;;;;;;;2.25;0.73;;;5.30;99.90;;;;;;5099037;28;20043;-74
2022/04/01 13:25:17;;;;;;;3.28;1.15;;;5.30;99.90;;;;;;5093958;28;20036;-74
2022/04/01 13:27:45;;;;;;;4.55;1.10;;;5.30;99.90;;;;;;5109660;28;20050;-75
2022/04/01 13:30:12;;;;;;;3.70;1.13;;;5.40;99.90;;;;;;5098157;28;20035;-75